Rina Amoretti — IBRR — position and weather

sailwx.info

Track history (hours):
 
Tides and Currents Weather Stations Pressure Air Temp Water Temp Dewpoint Dewpoint Depression Visibility Wind Speed Wind Dir Waves Ship Positions

Rina Amoretti

Last reported at 2014-Dec-23 03:33 UTC. Time now 2014-Dec-23 03:45 UTC.
Position N 40°48' E 014°19'.

Length 220 m; draft 8 m.

Type: Ship (hazmat cat A). MMSI: 247197000.

Date/timePositionNaut miles runAvg speedWind from/ knotsBaromVisibWave heightAir tempDewpointWater temp
2014-Dec-23 03:33N 40°48' E 014°19'0 0.0
2014-Dec-23 02:33N 40°48' E 014°19'0 0.0
2014-Dec-23 01:30N 40°48' E 014°19'0 0.1
2014-Dec-23 00:33N 40°48' E 014°20'0 0.0
2014-Dec-22 23:18N 40°48' E 014°19'0 0.1
2014-Dec-22 22:33N 40°48' E 014°19'0 0.0
2014-Dec-22 21:33N 40°48' E 014°19'0 0.0
2014-Dec-22 20:27N 40°48' E 014°19'0 0.0
2014-Dec-22 19:24N 40°48' E 014°19'0 0.0
2014-Dec-22 18:33N 40°48' E 014°19'0 0.0
2014-Dec-22 17:33N 40°48' E 014°19'5 4.8
2014-Dec-22 16:33N 40°44' E 014°17'1313.1
2014-Dec-22 15:33N 40°32' E 014°10'1313.0
2014-Dec-22 14:31N 40°20' E 014°17'  
2014-Dec-19 11:10N 37°60' E 015°32'1013.7
2014-Dec-19 10:28N 38°09' E 015°35'1010.8
2014-Dec-19 09:33N 38°19' E 015°37'1413.7
2014-Dec-19 08:33N 38°19' E 015°20'1513.8
2014-Dec-19 07:27N 38°17' E 015°01'75 9.0
2014-Dec-18 23:07N 38°06' E 013°26'0 0.0
2014-Dec-18 22:28N 38°06' E 013°26'0 0.0
2014-Dec-18 21:31N 38°06' E 013°26'0 0.0
2014-Dec-18 20:31N 38°06' E 013°26'0 0.0
2014-Dec-18 19:31N 38°06' E 013°26'0 0.0
2014-Dec-18 18:31N 38°06' E 013°26'0 0.0
2014-Dec-18 17:31N 38°06' E 013°26'0 0.0
2014-Dec-18 16:28N 38°06' E 013°26'0 0.0
2014-Dec-18 15:31N 38°06' E 013°26'0 0.0
2014-Dec-18 14:31N 38°06' E 013°26'0 0.0
2014-Dec-18 13:31N 38°06' E 013°26'0 0.0
2014-Dec-18 12:31N 38°06' E 013°26'0 0.0
2014-Dec-18 11:31N 38°06' E 013°26'0 0.0
2014-Dec-18 10:31N 38°06' E 013°26'0 0.0
2014-Dec-18 09:31N 38°06' E 013°26'0 0.0
2014-Dec-18 08:31N 38°06' E 013°26'0 0.0
2014-Dec-18 07:33N 38°06' E 013°26'1 0.8
2014-Dec-18 06:33N 38°07' E 013°26'0 0.2
2014-Dec-18 05:31N 38°07' E 013°26'0 0.0
2014-Dec-18 04:31N 38°07' E 013°26'0 0.0
2014-Dec-18 03:31N 38°07' E 013°26'0 0.0
2014-Dec-18 02:31N 38°07' E 013°26'0 0.0
2014-Dec-18 01:31N 38°07' E 013°26'0 0.0
2014-Dec-18 00:31N 38°07' E 013°26'0 0.0
2014-Dec-17 23:31N 38°07' E 013°26'0 0.0
2014-Dec-17 22:31N 38°07' E 013°26'0 0.0
2014-Dec-17 21:31N 38°07' E 013°26'0 0.0
2014-Dec-17 20:31N 38°07' E 013°26'0 0.0
2014-Dec-17 19:28N 38°07' E 013°26'0 0.0
2014-Dec-17 18:31N 38°07' E 013°26'0 0.0
2014-Dec-17 17:31N 38°07' E 013°26'0 0.0
2014-Dec-17 16:31N 38°07' E 013°26'0 0.0
2014-Dec-17 15:31N 38°07' E 013°26'0 0.0
2014-Dec-17 14:31N 38°07' E 013°26'0 0.0
2014-Dec-17 13:31N 38°07' E 013°26'0 0.0
2014-Dec-17 12:31N 38°07' E 013°26'0 0.0
2014-Dec-17 11:31N 38°07' E 013°26'0 0.1
2014-Dec-17 10:31N 38°07' E 013°26'0 0.5
2014-Dec-17 09:33N 38°07' E 013°27'1110.8
2014-Dec-17 08:33N 38°10' E 013°40'1312.9
2014-Dec-17 07:33N 38°12' E 013°56'1412.8
2014-Dec-17 06:27N 38°13' E 014°14'  
2014-Dec-14 07:23N 38°03' E 015°33'1213.7
2014-Dec-14 06:33N 38°14' E 015°37'6311.7
2014-Dec-14 01:09N 38°13' E 014°16'813.3
2014-Dec-14 00:32N 38°12' E 014°06'1313.2
2014-Dec-13 23:33N 38°11' E 013°50'1313.3
2014-Dec-13 22:34N 38°10' E 013°33'6 6.3
2014-Dec-13 21:31N 38°06' E 013°26'0 0.0
2014-Dec-13 20:31N 38°06' E 013°26'0 0.0
2014-Dec-13 19:31N 38°06' E 013°26'0 0.0
2014-Dec-13 18:31N 38°06' E 013°26'0 0.0
2014-Dec-13 17:31N 38°06' E 013°26'0 0.0
2014-Dec-13 16:31N 38°06' E 013°26'0 0.0
2014-Dec-13 15:31N 38°06' E 013°26'0 0.0
2014-Dec-13 14:31N 38°06' E 013°26'0 0.0
2014-Dec-13 13:31N 38°06' E 013°26'  
Track history (hours):
 
Tides and Currents Weather Stations Pressure Air Temp Water Temp Dewpoint Dewpoint Depression Visibility Wind Speed Wind Dir Waves Ship Positions

Rina Amoretti

Last reported at 2014-Dec-23 03:33 UTC. Time now 2014-Dec-23 03:45 UTC.
Position N 40°48' E 014°19'.

Length 220 m; draft 8 m.

Type: Ship (hazmat cat A). MMSI: 247197000.

Date/timePositionNaut miles runAvg speedWind from/ knotsBaromVisibWave heightAir tempDewpointWater temp
2014-Dec-23 03:33N 40°48' E 014°19'0 0.0
2014-Dec-23 02:33N 40°48' E 014°19'0 0.0
2014-Dec-23 01:30N 40°48' E 014°19'0 0.1
2014-Dec-23 00:33N 40°48' E 014°20'0 0.0
2014-Dec-22 23:18N 40°48' E 014°19'0 0.1
2014-Dec-22 22:33N 40°48' E 014°19'0 0.0
2014-Dec-22 21:33N 40°48' E 014°19'0 0.0
2014-Dec-22 20:27N 40°48' E 014°19'0 0.0
2014-Dec-22 19:24N 40°48' E 014°19'0 0.0
2014-Dec-22 18:33N 40°48' E 014°19'0 0.0
2014-Dec-22 17:33N 40°48' E 014°19'5 4.8
2014-Dec-22 16:33N 40°44' E 014°17'1313.1
2014-Dec-22 15:33N 40°32' E 014°10'1313.0
2014-Dec-22 14:31N 40°20' E 014°17'  
2014-Dec-19 11:10N 37°60' E 015°32'1013.7
2014-Dec-19 10:28N 38°09' E 015°35'1010.8
2014-Dec-19 09:33N 38°19' E 015°37'1413.7
2014-Dec-19 08:33N 38°19' E 015°20'1513.8
2014-Dec-19 07:27N 38°17' E 015°01'75 9.0
2014-Dec-18 23:07N 38°06' E 013°26'0 0.0
2014-Dec-18 22:28N 38°06' E 013°26'0 0.0
2014-Dec-18 21:31N 38°06' E 013°26'0 0.0
2014-Dec-18 20:31N 38°06' E 013°26'0 0.0
2014-Dec-18 19:31N 38°06' E 013°26'0 0.0
2014-Dec-18 18:31N 38°06' E 013°26'0 0.0
2014-Dec-18 17:31N 38°06' E 013°26'0 0.0
2014-Dec-18 16:28N 38°06' E 013°26'0 0.0
2014-Dec-18 15:31N 38°06' E 013°26'0 0.0
2014-Dec-18 14:31N 38°06' E 013°26'0 0.0
2014-Dec-18 13:31N 38°06' E 013°26'0 0.0
2014-Dec-18 12:31N 38°06' E 013°26'0 0.0
2014-Dec-18 11:31N 38°06' E 013°26'0 0.0
2014-Dec-18 10:31N 38°06' E 013°26'0 0.0
2014-Dec-18 09:31N 38°06' E 013°26'0 0.0
2014-Dec-18 08:31N 38°06' E 013°26'0 0.0
2014-Dec-18 07:33N 38°06' E 013°26'1 0.8
2014-Dec-18 06:33N 38°07' E 013°26'0 0.2
2014-Dec-18 05:31N 38°07' E 013°26'0 0.0
2014-Dec-18 04:31N 38°07' E 013°26'0 0.0
2014-Dec-18 03:31N 38°07' E 013°26'0 0.0
2014-Dec-18 02:31N 38°07' E 013°26'0 0.0
2014-Dec-18 01:31N 38°07' E 013°26'0 0.0
2014-Dec-18 00:31N 38°07' E 013°26'0 0.0
2014-Dec-17 23:31N 38°07' E 013°26'0 0.0
2014-Dec-17 22:31N 38°07' E 013°26'0 0.0
2014-Dec-17 21:31N 38°07' E 013°26'0 0.0
2014-Dec-17 20:31N 38°07' E 013°26'0 0.0
2014-Dec-17 19:28N 38°07' E 013°26'0 0.0
2014-Dec-17 18:31N 38°07' E 013°26'0 0.0
2014-Dec-17 17:31N 38°07' E 013°26'0 0.0
2014-Dec-17 16:31N 38°07' E 013°26'0 0.0
2014-Dec-17 15:31N 38°07' E 013°26'0 0.0
2014-Dec-17 14:31N 38°07' E 013°26'0 0.0
2014-Dec-17 13:31N 38°07' E 013°26'0 0.0
2014-Dec-17 12:31N 38°07' E 013°26'0 0.0
2014-Dec-17 11:31N 38°07' E 013°26'0 0.1
2014-Dec-17 10:31N 38°07' E 013°26'0 0.5
2014-Dec-17 09:33N 38°07' E 013°27'1110.8
2014-Dec-17 08:33N 38°10' E 013°40'1312.9
2014-Dec-17 07:33N 38°12' E 013°56'1412.8
2014-Dec-17 06:27N 38°13' E 014°14'  
2014-Dec-14 07:23N 38°03' E 015°33'1213.7
2014-Dec-14 06:33N 38°14' E 015°37'6311.7
2014-Dec-14 01:09N 38°13' E 014°16'813.3
2014-Dec-14 00:32N 38°12' E 014°06'1313.2
2014-Dec-13 23:33N 38°11' E 013°50'1313.3
2014-Dec-13 22:34N 38°10' E 013°33'6 6.3
2014-Dec-13 21:31N 38°06' E 013°26'0 0.0
2014-Dec-13 20:31N 38°06' E 013°26'0 0.0
2014-Dec-13 19:31N 38°06' E 013°26'0 0.0
2014-Dec-13 18:31N 38°06' E 013°26'0 0.0
2014-Dec-13 17:31N 38°06' E 013°26'0 0.0
2014-Dec-13 16:31N 38°06' E 013°26'0 0.0
2014-Dec-13 15:31N 38°06' E 013°26'0 0.0
2014-Dec-13 14:31N 38°06' E 013°26'0 0.0
2014-Dec-13 13:31N 38°06' E 013°26'  

Dump ship's entire track history